Time;durP1;ratioP1;P1;durP2;ratioP2;P2;SDS_P1;SDS_P2;PMS_P1;PMS_P2;Temp;Humidity;BMP_temperature;BMP_pressure;BME280_temperature;BME280_humidity;BME280_pressure;Samples;Min_cycle;Max_cycle;Signal;HPM_P1;HPM_P2
2023/11/16 08:37:18;;;;;;;3.17;2.20;;;;;;;9.14;100.00;98791.28;5151367;27;20572;-86
2023/11/16 08:39:48;;;;;;;2.50;2.30;;;;;;;10.04;100.00;98818.47;5131866;27;39111;-84
2023/11/16 09:11:33;;;;;;;5.80;1.50;;;;;;;13.24;95.95;98790.53;5187976;27;40555;-86
2023/11/16 09:14:26;;;;;;;1.40;1.20;;;;;;;13.67;95.01;98821.91;5156549;27;42519;-84
2023/11/16 09:17:02;;;;;;;1.23;1.13;;;;;;;13.89;93.18;98829.97;5157326;27;41299;-86
2023/11/16 09:19:30;;;;;;;3.17;1.50;;;;;;;14.09;90.49;98825.78;5140474;27;41179;-88
2023/11/16 10:02:32;;;;;;;3.77;2.00;;;;;;;13.65;79.74;98766.16;5177308;27;42442;-84
2023/11/16 10:05:42;;;;;;;4.90;2.10;;;;;;;13.50;79.31;98731.88;5079620;28;41777;-88
2023/11/16 10:08:29;;;;;;;3.80;1.43;;;;;;;13.35;79.70;98695.81;5079306;28;41229;-86
2023/11/16 10:11:00;;;;;;;7.57;1.77;;;;;;;13.56;78.62;98731.41;5079174;28;39034;-84
2023/11/16 10:14:07;;;;;;;5.13;1.80;;;;;;;13.61;78.69;98700.81;5080368;28;41598;-83
2023/11/16 10:16:56;;;;;;;3.60;1.30;;;;;;;13.84;78.71;98716.84;5079953;28;41825;-87
2023/11/16 10:49:21;;;;;;;4.73;1.13;;;;;;;16.75;68.73;98650.31;5114186;27;44323;-86
2023/11/16 10:51:53;;;;;;;2.83;1.20;;;;;;;16.68;67.03;98596.56;5078970;28;41292;-87
2023/11/16 10:54:42;;;;;;;3.00;1.27;;;;;;;17.46;64.98;98673.09;5078331;28;39038;-90
2023/11/16 10:57:14;;;;;;;2.67;0.87;;;;;;;17.79;60.89;98682.53;5079050;28;41600;-85
2023/11/16 10:59:47;;;;;;;3.37;1.10;;;;;;;17.71;59.75;98650.25;5077554;28;41675;-84
2023/11/16 11:02:36;;;;;;;3.47;1.30;;;;;;;17.75;60.12;98667.72;5078934;28;41555;-90
2023/11/16 11:05:11;;;;;;;2.60;1.13;;;;;;;17.33;60.86;98627.06;5078403;28;39964;-87
2023/11/16 11:07:47;;;;;;;4.50;1.20;;;;;;;17.22;61.18;98637.91;5077432;27;40890;-87
2023/11/16 11:10:17;;;;;;;3.37;1.37;;;;;;;16.94;61.42;98622.75;5098443;27;41533;-87
2023/11/16 11:12:47;;;;;;;3.10;1.50;;;;;;;16.63;62.44;98595.28;5099155;27;42306;-86
2023/11/16 11:15:29;;;;;;;5.37;1.80;;;;;;;16.45;62.62;98606.63;5099757;27;39114;-85
2023/11/16 11:18:08;;;;;;;4.77;1.47;;;;;;;16.24;62.27;98592.53;5099388;27;42663;-85
2023/11/16 11:21:07;;;;;;;4.37;0.97;;;;;;;15.79;63.80;98541.41;5099627;27;41789;-87
2023/11/16 11:23:38;;;;;;;3.13;1.50;;;;;;;15.81;64.09;98566.16;5082611;27;40948;-87
2023/11/16 11:26:13;;;;;;;3.97;1.37;;;;;;;15.61;64.28;98551.88;5099470;27;38870;-86
2023/11/16 11:28:46;;;;;;;2.73;1.20;;;;;;;15.51;64.73;98542.13;5099596;27;40676;-88
2023/11/16 11:32:02;;;;;;;2.93;1.20;;;;;;;15.10;65.17;98493.19;5099164;27;42192;-83
2023/11/16 11:35:12;;;;;;;3.00;1.53;;;;;;;14.90;64.80;98488.75;5099219;27;42186;-85
2023/11/16 11:37:48;;;;;;;1.57;0.93;;;;;;;14.91;65.75;98509.97;5098772;27;38996;-88
2023/11/16 11:40:27;;;;;;;3.10;1.40;;;;;;;14.79;66.17;98499.50;5099293;27;41057;-87
2023/11/16 11:43:21;;;;;;;4.40;1.60;;;;;;;14.66;66.81;98500.53;5099407;27;41855;-89
2023/11/16 11:51:41;;;;;;;6.97;1.33;;;;;;;14.06;67.31;98463.03;5131505;27;42754;-88
2023/11/16 11:54:10;;;;;;;5.57;1.63;;;;;;;13.96;68.05;98460.28;5099395;27;42197;-86
2023/11/16 11:56:48;;;;;;;2.17;1.10;;;;;;;13.69;68.75;98434.13;5098853;27;41177;-86
2023/11/16 11:59:36;;;;;;;4.30;2.10;;;;;;;13.77;68.76;98468.94;5082340;27;39020;-88
2023/11/16 12:02:27;;;;;;;5.33;1.30;;;;;;;13.61;69.32;98447.19;5098971;27;41552;-87
2023/11/16 12:05:17;;;;;;;4.30;1.80;;;;;;;13.65;69.93;98465.44;5097740;27;43939;-88
2023/11/16 12:08:05;;;;;;;1.60;1.50;;;;;;;13.59;70.54;98454.47;5072809;28;40995;-87
2023/11/16 12:10:34;;;;;;;3.87;1.47;;;;;;;13.54;71.05;98460.16;5074717;28;39264;-87
2023/11/16 12:13:03;;;;;;;5.30;1.63;;;;;;;13.29;71.22;98417.88;5075177;28;42142;-88
2023/11/16 12:15:53;;;;;;;3.03;1.77;;;;;;;13.45;71.59;98463.56;5058669;28;42573;-85
2023/11/16 12:18:22;;;;;;;3.60;1.73;;;;;;;13.39;71.60;98452.56;5074660;28;41401;-87
2023/11/16 12:20:53;;;;;;;4.20;2.00;;;;;;;13.36;70.68;98471.41;5074758;28;39050;-87
2023/11/16 12:23:25;;;;;;;3.07;1.57;;;;;;;13.14;71.55;98449.19;5064813;27;40524;-86
2023/11/16 12:26:10;;;;;;;3.60;1.90;;;;;;;13.19;72.20;98447.03;5099029;27;41972;-88
2023/11/16 12:28:39;;;;;;;1.67;1.37;;;;;;;13.13;71.90;98447.47;5081167;27;41590;-89
2023/11/16 12:31:16;;;;;;;2.33;1.60;;;;;;;12.92;72.15;98427.91;5080719;27;39470;-87
2023/11/16 12:33:46;;;;;;;2.17;1.37;;;;;;;13.06;72.33;98451.59;5080764;27;40742;-88
2023/11/16 12:36:22;;;;;;;3.07;1.23;;;;;;;13.12;72.50;98471.53;5080917;27;42075;-89
2023/11/16 12:39:09;;;;;;;4.83;1.77;;;;;;;12.70;72.88;98411.97;5097144;27;41634;-90
2023/11/16 12:41:59;;;;;;;4.13;1.57;;;;;;;13.04;72.87;98469.47;5097773;27;39242;-89
2023/11/16 12:44:49;;;;;;;3.50;2.03;;;;;;;12.79;72.78;98443.97;5097041;27;40524;-87
2023/11/16 12:47:17;;;;;;;1.83;1.40;;;;;;;12.86;73.04;98470.91;5087075;27;42922;-90
2023/11/16 12:49:45;;;;;;;4.20;1.80;;;;;;;12.88;73.24;98479.59;5135129;27;41221;-90
2023/11/16 12:52:16;;;;;;;3.27;1.53;;;;;;;12.84;73.44;98478.19;5118334;27;40413;-87
2023/11/16 12:54:44;;;;;;;4.60;1.90;;;;;;;12.75;73.82;98473.53;5134004;27;43287;-88
2023/11/16 13:03:30;;;;;;;6.27;2.00;;;;;;;12.51;75.20;98471.81;5125122;27;39979;-88
2023/11/16 13:06:14;;;;;;;4.43;1.60;;;;;;;12.41;74.57;98460.22;5091600;28;41781;-85
2023/11/16 13:08:45;;;;;;;5.00;1.93;;;;;;;12.07;75.11;98408.00;5075791;28;41703;-87
2023/11/16 13:11:32;;;;;;;3.50;1.60;;;;;;;12.37;75.29;98474.66;5075354;28;42730;-90
2023/11/16 13:14:00;;;;;;;2.43;1.53;;;;;;;11.92;76.05;98409.13;5077159;28;40053;-84
2023/11/16 13:16:51;;;;;;;3.30;1.77;;;;;;;12.07;77.35;98450.44;5093401;28;42416;-88
2023/11/16 13:27:00;;;;;;;3.93;2.23;;;;;;;11.65;80.61;98425.25;5122461;27;40701;-85
2023/11/16 13:29:28;;;;;;;5.13;1.90;;;;;;;11.48;81.62;98400.84;5101380;27;40923;-84
2023/11/16 13:32:19;;;;;;;6.63;2.20;;;;;;;11.16;84.39;98347.50;5101885;27;42729;-84
2023/11/16 13:34:52;;;;;;;3.70;1.70;;;;;;;11.19;84.13;98366.81;5102131;27;41629;-84
2023/11/16 13:40:12;;;;;;;1.50;1.13;;;;;;;10.99;83.58;98350.56;5134177;27;42459;-84
2023/11/16 13:42:43;;;;;;;2.43;1.10;;;;;;;11.08;83.77;98376.38;5099917;27;42178;-84
2023/11/16 13:45:12;;;;;;;2.53;1.20;;;;;;;11.00;83.79;98367.31;5099649;27;42306;-85
2023/11/16 13:47:43;;;;;;;3.00;1.43;;;;;;;10.92;84.65;98345.81;5101004;27;38922;-84
2023/11/16 13:50:12;;;;;;;2.43;1.40;;;;;;;10.64;85.55;98293.97;5100321;27;42094;-84
2023/11/16 13:52:41;;;;;;;2.70;1.10;;;;;;;10.55;86.55;98278.72;5099882;27;42727;-83
2023/11/16 13:55:10;;;;;;;3.30;1.20;;;;;;;10.84;86.35;98319.88;5099980;27;41220;-83
2023/11/16 14:00:27;;;;;;;1.87;1.30;;;;;;;10.46;86.03;98255.56;5098308;27;41958;-83
2023/11/16 14:02:58;;;;;;;2.37;1.30;;;;;;;10.42;86.07;98252.28;5100364;27;41850;-83
2023/11/16 14:05:29;;;;;;;2.00;1.30;;;;;;;10.77;86.16;98305.38;5099922;27;41277;-83
2023/11/16 14:07:57;;;;;;;4.47;1.67;;;;;;;10.61;86.32;98275.66;5099527;27;39384;-84
2023/11/16 14:10:24;;;;;;;2.07;1.13;;;;;;;10.40;86.62;98231.22;5099880;27;41131;-84
2023/11/16 14:12:53;;;;;;;3.37;1.83;;;;;;;10.63;87.69;98279.06;5100268;27;43642;-84
2023/11/16 14:15:49;;;;;;;3.07;2.00;;;;;;;10.63;88.29;98294.94;5100694;27;42224;-85
2023/11/16 14:25:01;;;;;;;1.93;1.40;;;;;;;10.30;90.48;98267.25;5074889;28;41514;-84
2023/11/16 14:27:29;;;;;;;3.77;2.10;;;;;;;10.30;90.51;98261.97;5062374;28;42370;-84
2023/11/16 14:29:59;;;;;;;3.77;1.40;;;;;;;9.95;90.30;98208.84;5066439;28;39034;-84
2023/11/16 14:32:43;;;;;;;7.07;1.57;;;;;;;10.19;90.46;98231.91;5083768;28;41985;-84
2023/11/16 14:35:31;;;;;;;2.77;1.60;;;;;;;10.32;90.00;98248.63;5067923;28;41900;-84
2023/11/16 14:38:01;;;;;;;5.23;1.73;;;;;;;10.05;89.91;98203.75;5084007;28;42781;-83
2023/11/16 14:43:11;;;;;;;3.53;1.57;;;;;;;10.44;89.57;98235.34;5074489;28;41015;-85
2023/11/16 14:45:58;;;;;;;1.87;1.40;;;;;;;10.52;90.00;98231.28;5057516;28;42502;-86
2023/11/16 14:48:57;;;;;;;5.20;2.10;;;;;;;10.42;90.56;98216.09;5089873;27;41401;-85
2023/11/16 14:51:24;;;;;;;4.30;2.40;;;;;;;10.51;90.02;98217.22;5115662;27;39918;-86
2023/11/16 14:53:52;;;;;;;4.63;2.37;;;;;;;10.41;90.28;98206.44;5098697;27;41128;-84
2023/11/16 15:02:18;;;;;;;4.20;2.00;;;;;;;10.46;90.73;98226.47;5132844;27;40697;-84
2023/11/16 15:04:47;;;;;;;3.17;1.63;;;;;;;10.17;91.00;98213.47;5113608;27;41423;-86
2023/11/16 15:07:19;;;;;;;2.77;2.10;;;;;;;10.17;90.77;98226.69;5132965;27;43288;-84
2023/11/16 15:09:47;;;;;;;3.63;2.00;;;;;;;10.11;91.63;98223.66;5115857;27;41688;-87
2023/11/16 15:12:18;;;;;;;3.00;2.17;;;;;;;10.12;91.36;98230.63;5115404;27;39671;-84
2023/11/16 15:14:49;;;;;;;3.50;2.20;;;;;;;10.11;91.21;98239.53;5154008;27;39776;-84
2023/11/16 15:17:21;;;;;;;2.93;2.10;;;;;;;10.07;91.74;98233.59;5137477;27;43309;-85
2023/11/16 15:19:59;;;;;;;3.60;2.30;;;;;;;9.80;92.13;98194.06;5122275;27;42767;-85
2023/11/16 15:22:27;;;;;;;2.67;1.93;;;;;;;9.88;91.64;98206.75;5137677;27;39712;-84
2023/11/16 15:24:55;;;;;;;3.00;2.13;;;;;;;10.10;91.31;98243.97;5154091;27;41302;-85
2023/11/16 15:27:25;;;;;;;2.73;2.50;;;;;;;9.91;91.57;98217.09;5137387;27;41920;-87
2023/11/16 15:29:52;;;;;;;3.50;2.87;;;;;;;10.12;91.35;98247.38;5136794;27;42898;-86
